Mobile Downtown Airport
KBFM : now visible

Airfield :











YOU CAN JOIN US ON...

 
LOGIN :

Register | Disclaimer

   EN    FR    IT 

 









Legend :    VFR   Marginal VFR   IFR   Intensive IFR   Very Intensive IFR
Visi :
Ceiling :
>= 8 km
>= 3000ft
5 to 8 km
1000 to 3000 ft
1500m to 5 km
500 to 1000 ft
800 to 1500m
200 to 500 ft
< 800m
< 200 ft
Symbols :   Thunderstorms  Fog  Heavy snow  Heavy precipitations  Wind > 20 kt






- Airport Elevation : 26 ft


KBFM - Mobile Downtown

CURRENT METAR :
  • 271353Z VRB05KT 10SM OVC013 24/22 A3005 RMK AO2 SLP175 T02440222

EXPIRED METARs :
  • 271253Z 02006KT 10SM BKN011 24/21 A3004 RMK AO2 SLP172 T02390211
  • 271153Z 02005KT 10SM BKN014 OVC034 24/21 A3004 RMK AO2 RAB17E28 SLP171 P0000 60000 T02390211 10239 20228 53008

TAF KBFM
Valid from the 27 at 15:00 until the 28 at 12:00 UTC


271436Z 2715/2812 05006KT P6SM VCSH OVC010
FM271700 11010G18KT 6SM SHRA OVC030
FM280300 09010KT 6SM SHRA OVC025
FM280600 11007KT 6SM SHRA OVC015
KZHU FIR / North America



MET'MAP, your aeronautical weather chart ! - Copyright ORBIFLY December 2007 - Disclaimer

ORBIFLY MET'MAP TEAM :

Programming & Development : Alexandra Zaïnal
Concept & original design : Baudouin d'Aumeries
Assistance for programming : Marc-Olivier Méhu
Technical & hardware support : Manuel Goepfert

Contact : metmap@orbifly.com




SOURCES & CREDITS :

   NOAA       Earth
Advisory